Palacios, TX

2:19 AM CST on December 03, 2016 (GMT -0600)
Palacios Pavilion | | Change Station

Elev 0 ft 28.70 °N, 96.22 °W | Updated 5 seconds ago

Heavy Thunderstorms and Rain
Heavy Thunderstorm Rain Mist
61.5 °F
Feels Like 61.5 °F
N
2.8
Wind Variable Wind from North
Gusts 3.0 mph

Today
High -- | Low -- °F
--% Chance of Precip.
Yesterday
High -- | Low -- °F
Precip. -- in
Pressure 29.88 in
Visibility 1.5 miles
Clouds Mostly Cloudy 400 ft
Mostly Cloudy 1200 ft
Overcast 1900 ft
Dew Point 61 °F
Humidity 99%
Rainfall 0.00 in
Snow Depth Not available.
7:02 AM 5:27 PM
Waxing Crescent, 13% visible
SPECI KPSX 030800Z AUTO 01008KT 1 1/2SM +TSRA BR BKN004 BKN012 OVC019 16/15 A2988 RMK AO2 LTG DSNT E-SW P0013 T01560150
Pressure 29.88 in
Visibility 1.5 miles
Clouds Mostly Cloudy 400 ft
Mostly Cloudy 1200 ft
Overcast 1900 ft
Dew Point 61 °F
Humidity 99%
Rainfall 0.00 in
Snow Depth Not available.
7:02 AM 5:27 PM
Waxing Crescent, 13% visible
SPECI KPSX 030800Z AUTO 01008KT 1 1/2SM +TSRA BR BKN004 BKN012 OVC019 16/15 A2988 RMK AO2 LTG DSNT E-SW P0013 T01560150

10-Day Weather Forecast

Almanac

Astronomy

Dec. 03, 2016 Rise Set
Actual Time
Civil Twilight
Nautical Twilight
Astronomical Twilight
Moon
Length of Visible Light
Length of Day
Tomorrow will be .
, % of the Moon is Illuminated

Today's Extremes

State Highs State Lows

Community

WunderPhotos

Upload Photos

1,955,432 photos uploaded!

WunderBlog® & News

Nearby

Air Quality

  Air Quality AQ Index Pollutant
Not available.

Snow Depth

Station Depth Elevation

Earthquake Activity

City Distance Mag. Time & Date
Minimum magnitude displayed is 2.5.

Coastal Water Temperatures

Place Temperature

Stations

Nearby Weather Stations

Station Location Temp. Windchill Dew Point Humidity Wind Precip. Elev Updated Type
                   

Watches & Warnings

There are currently no watches in effect.